Time;durP1;ratioP1;P1;durP2;ratioP2;P2;SDS_P1;SDS_P2;PMS_P1;PMS_P2;Temp;Humidity;BMP_temperature;BMP_pressure;BME280_temperature;BME280_humidity;BME280_pressure;Samples;Min_cycle;Max_cycle;Signal;HPM_P1;HPM_P2
2024/04/15 00:00:13;;;;;;;2.50;2.17;;;;;;;16.46;99.21;97859.00;5442384;26;20276;-79
2024/04/15 00:02:42;;;;;;;2.70;2.30;;;;;;;16.55;96.43;97866.09;5442365;26;20321;-79
2024/04/15 00:05:10;;;;;;;2.67;2.10;;;;;;;16.58;95.25;97855.97;5444479;26;20283;-80
2024/04/15 00:07:38;;;;;;;3.10;2.30;;;;;;;16.63;94.02;97852.88;5444724;26;20259;-79
2024/04/15 00:10:04;;;;;;;3.70;2.40;;;;;;;16.74;92.29;97834.78;5443175;26;20693;-80
2024/04/15 00:12:32;;;;;;;2.60;2.17;;;;;;;16.85;90.19;97829.25;5443821;26;20224;-79
2024/04/15 00:14:58;;;;;;;2.70;2.30;;;;;;;16.87;88.65;97829.91;5444354;26;20333;-80
2024/04/15 00:17:26;;;;;;;3.67;2.50;;;;;;;16.89;89.45;97864.47;5447185;26;20580;-80
2024/04/15 00:19:52;;;;;;;3.03;2.17;;;;;;;16.89;90.14;97892.00;5446711;26;20299;-80
2024/04/15 00:22:23;;;;;;;2.30;2.10;;;;;;;16.91;90.70;97875.84;5446781;26;20332;-80
2024/04/15 00:24:48;;;;;;;3.60;2.40;;;;;;;16.87;89.63;97867.28;5447746;26;20228;-80
2024/04/15 00:27:17;;;;;;;2.93;2.40;;;;;;;16.83;89.33;97871.25;5446678;26;20232;-80
2024/04/15 00:29:42;;;;;;;3.10;2.57;;;;;;;16.97;88.82;97873.41;5447410;26;20307;-80
2024/04/15 00:32:10;;;;;;;2.80;2.50;;;;;;;16.95;88.88;97882.56;5447356;26;20314;-80
2024/04/15 00:34:36;;;;;;;2.80;2.40;;;;;;;16.89;89.17;97875.16;5447545;26;20307;-79
2024/04/15 00:37:04;;;;;;;2.07;1.87;;;;;;;16.88;88.27;97863.63;5447890;26;20309;-79
2024/04/15 00:39:33;;;;;;;2.60;2.17;;;;;;;16.89;86.65;97849.28;5446620;26;20343;-80
2024/04/15 00:42:01;;;;;;;2.33;2.10;;;;;;;16.85;87.19;97858.59;5447108;26;20353;-79
2024/04/15 00:44:30;;;;;;;2.50;2.30;;;;;;;16.80;87.29;97847.53;5438748;26;20233;-79
2024/04/15 00:46:58;;;;;;;3.20;2.37;;;;;;;16.73;87.29;97853.63;5411959;26;20658;-80
2024/04/15 00:49:24;;;;;;;3.90;2.57;;;;;;;16.60;86.88;97829.97;5410517;26;20308;-80
2024/04/15 00:51:53;;;;;;;2.60;2.23;;;;;;;16.64;87.05;97823.34;5411028;26;20237;-80
2024/04/15 00:54:18;;;;;;;3.10;2.20;;;;;;;16.55;86.63;97813.59;5410655;26;20358;-79
2024/04/15 00:56:49;;;;;;;3.13;2.80;;;;;;;16.48;86.76;97812.50;5408356;26;20229;-79
2024/04/15 00:59:15;;;;;;;2.93;2.50;;;;;;;16.42;87.92;97812.25;5409613;26;20705;-80
2024/04/15 01:01:43;;;;;;;3.03;2.67;;;;;;;16.33;87.64;97816.63;5410613;26;20307;-80
2024/04/15 01:04:09;;;;;;;5.70;2.53;;;;;;;16.38;86.93;97806.38;5411470;26;20289;-80
2024/04/15 01:06:37;;;;;;;2.77;2.20;;;;;;;16.27;87.28;97798.56;5411728;26;20302;-80
2024/04/15 01:09:03;;;;;;;2.50;2.03;;;;;;;16.25;87.30;97811.22;5410940;26;20318;-79
2024/04/15 01:11:31;;;;;;;3.03;2.37;;;;;;;16.15;88.41;97817.59;5409811;26;20314;-79
2024/04/15 01:14:01;;;;;;;3.33;2.20;;;;;;;16.10;89.84;97827.84;5411638;26;20285;-80
2024/04/15 01:16:36;;;;;;;2.53;2.07;;;;;;;16.02;90.58;97824.22;5409791;26;20478;-79
2024/04/15 01:19:02;;;;;;;2.43;2.13;;;;;;;16.08;90.67;97820.00;5410280;26;20365;-79
2024/04/15 01:21:30;;;;;;;2.93;2.47;;;;;;;16.12;90.49;97811.72;5408577;26;20249;-79
2024/04/15 01:23:59;;;;;;;3.23;2.40;;;;;;;15.98;90.94;97825.50;5410277;26;20273;-79
2024/04/15 01:26:29;;;;;;;2.60;2.20;;;;;;;15.90;92.39;97825.41;5409627;26;20237;-80
2024/04/15 01:28:54;;;;;;;3.40;2.27;;;;;;;15.82;93.66;97817.31;5409165;26;20758;-79
2024/04/15 01:31:23;;;;;;;3.90;2.53;;;;;;;15.84;93.42;97818.00;5409619;26;20511;-79
2024/04/15 01:33:48;;;;;;;5.40;2.63;;;;;;;15.78;93.48;97815.91;5410637;26;20333;-79
2024/04/15 01:36:16;;;;;;;2.30;1.83;;;;;;;15.72;92.91;97795.19;5410350;26;20237;-80
2024/04/15 01:38:42;;;;;;;3.07;2.10;;;;;;;15.65;91.81;97800.22;5410221;26;20280;-79
2024/04/15 01:41:13;;;;;;;3.93;2.50;;;;;;;15.64;91.17;97790.56;5409629;26;20322;-79
2024/04/15 01:43:38;;;;;;;3.90;2.43;;;;;;;15.69;90.37;97798.13;5408492;26;20350;-80
2024/04/15 01:46:07;;;;;;;4.60;2.37;;;;;;;15.63;91.05;97802.22;5410232;26;20229;-79
2024/04/15 01:48:32;;;;;;;2.83;2.33;;;;;;;15.57;91.23;97801.97;5409354;26;20671;-80
2024/04/15 01:51:00;;;;;;;2.23;1.87;;;;;;;15.48;91.12;97797.50;5409051;26;20242;-80
2024/04/15 01:53:26;;;;;;;2.83;2.30;;;;;;;15.37;92.14;97790.50;5406666;26;20413;-78
2024/04/15 01:55:54;;;;;;;3.10;2.20;;;;;;;15.31;92.55;97798.19;5407190;26;20237;-79
2024/04/15 01:58:22;;;;;;;3.43;2.03;;;;;;;15.26;93.26;97784.47;5409734;26;20402;-79
2024/04/15 02:00:50;;;;;;;2.80;2.30;;;;;;;15.24;93.17;97789.97;5409173;26;20242;-79
2024/04/15 02:03:16;;;;;;;2.23;1.90;;;;;;;15.20;92.95;97782.38;5410578;26;20281;-79
2024/04/15 02:05:48;;;;;;;2.83;1.93;;;;;;;15.26;92.33;97781.81;5410262;26;20317;-78
2024/04/15 02:08:14;;;;;;;2.73;1.83;;;;;;;15.36;91.16;97762.22;5410116;26;20684;-79
2024/04/15 02:10:42;;;;;;;4.17;2.07;;;;;;;15.37;90.30;97768.34;5409188;26;20307;-79
2024/04/15 02:13:07;;;;;;;2.17;1.90;;;;;;;15.40;89.32;97762.75;5410434;26;20358;-79
2024/04/15 02:15:41;;;;;;;2.83;2.03;;;;;;;15.45;87.78;97771.16;5408608;26;20237;-79
2024/04/15 02:18:07;;;;;;;2.17;1.97;;;;;;;15.52;86.42;97770.41;5410559;26;20309;-79
2024/04/15 02:20:35;;;;;;;2.97;1.87;;;;;;;15.52;85.51;97777.59;5409139;26;20408;-79
2024/04/15 02:23:00;;;;;;;4.43;1.90;;;;;;;15.54;85.45;97763.13;5409688;26;20756;-79
2024/04/15 02:25:28;;;;;;;2.33;2.10;;;;;;;15.61;85.06;97747.41;5409565;26;20233;-79
2024/04/15 02:27:54;;;;;;;2.00;1.77;;;;;;;15.59;85.43;97755.53;5410769;26;20306;-79
2024/04/15 02:30:22;;;;;;;2.47;1.60;;;;;;;15.59;86.00;97758.19;5408736;26;20763;-79
2024/04/15 02:32:50;;;;;;;2.60;1.80;;;;;;;15.56;86.79;97762.97;5409389;26;20259;-79
2024/04/15 02:35:18;;;;;;;1.63;1.50;;;;;;;15.56;86.00;97750.50;5409828;26;20272;-79
2024/04/15 02:37:44;;;;;;;1.70;1.60;;;;;;;15.57;86.68;97741.53;5410100;26;20320;-79
2024/04/15 02:40:12;;;;;;;1.73;1.63;;;;;;;15.53;87.28;97758.78;5406923;26;20253;-79
2024/04/15 02:42:38;;;;;;;2.07;1.73;;;;;;;15.50;87.42;97752.91;5410199;26;20237;-79
2024/04/15 02:45:07;;;;;;;4.47;2.17;;;;;;;15.49;87.76;97757.41;5427211;26;20233;-79
2024/04/15 02:47:33;;;;;;;2.50;1.80;;;;;;;15.47;88.00;97763.84;5445429;26;20240;-79
2024/04/15 02:50:03;;;;;;;3.50;1.93;;;;;;;15.43;88.38;97747.34;5444012;26;20240;-79
2024/04/15 02:52:29;;;;;;;2.63;1.50;;;;;;;15.37;87.39;97733.75;5444443;26;20763;-79
2024/04/15 02:54:57;;;;;;;4.70;1.90;;;;;;;15.26;86.72;97732.06;5444955;26;20454;-79
2024/04/15 02:57:23;;;;;;;2.03;1.60;;;;;;;15.30;86.08;97725.47;5445729;26;20262;-78
2024/04/15 02:59:51;;;;;;;2.33;1.70;;;;;;;15.28;85.34;97722.09;5444645;26;20631;-78
2024/04/15 03:02:17;;;;;;;3.53;1.97;;;;;;;15.20;85.26;97729.97;5445740;26;20689;-79
2024/04/15 03:04:45;;;;;;;1.93;1.53;;;;;;;15.20;85.35;97723.81;5445901;26;20217;-79
2024/04/15 03:07:13;;;;;;;1.97;1.43;;;;;;;15.20;84.85;97742.44;5445650;26;20314;-79
2024/04/15 03:09:41;;;;;;;3.20;1.77;;;;;;;15.23;84.34;97735.03;5444842;26;20382;-78
2024/04/15 03:12:07;;;;;;;3.33;1.80;;;;;;;15.23;85.53;97731.53;5444872;26;20690;-79
2024/04/15 03:14:35;;;;;;;4.67;2.10;;;;;;;15.18;86.02;97715.13;5445360;26;20228;-78
2024/04/15 03:17:01;;;;;;;3.27;1.90;;;;;;;15.15;88.08;97752.72;5445667;26;20837;-79
2024/04/15 03:19:30;;;;;;;4.87;2.17;;;;;;;15.13;88.49;97762.63;5444215;26;20871;-79
2024/04/15 03:21:55;;;;;;;2.80;2.10;;;;;;;15.14;89.45;97761.66;5444656;25;20691;-78
2024/04/15 03:24:27;;;;;;;3.37;2.00;;;;;;;15.07;90.24;97765.88;5444126;26;20240;-79
2024/04/15 03:26:53;;;;;;;5.13;2.70;;;;;;;14.97;91.25;97786.34;5444417;26;20452;-79
2024/04/15 03:29:22;;;;;;;4.30;2.50;;;;;;;14.93;91.84;97771.63;5442840;26;20228;-79
2024/04/15 03:31:48;;;;;;;4.50;2.80;;;;;;;14.95;92.01;97756.34;5444261;26;20310;-79
2024/04/15 03:34:16;;;;;;;4.50;3.17;;;;;;;14.84;92.51;97761.84;5444582;26;20225;-79
2024/04/15 03:36:46;;;;;;;3.67;2.90;;;;;;;14.79;92.97;97772.06;5444850;26;20566;-79
2024/04/15 03:39:15;;;;;;;7.40;3.50;;;;;;;14.79;93.34;97758.78;5444169;26;20830;-79
2024/04/15 03:41:45;;;;;;;4.53;3.33;;;;;;;14.70;93.45;97730.34;5443396;26;20691;-78
2024/04/15 03:44:14;;;;;;;5.73;3.10;;;;;;;14.64;94.04;97720.25;5439683;26;20344;-79
2024/04/15 03:46:39;;;;;;;5.40;4.10;;;;;;;14.70;93.83;97730.34;5409093;26;20305;-78
2024/04/15 03:49:07;;;;;;;4.87;3.93;;;;;;;14.66;93.55;97718.31;5408065;26;20229;-79
2024/04/15 03:51:33;;;;;;;4.00;3.60;;;;;;;14.60;93.18;97726.88;5406977;26;20389;-79
2024/04/15 03:54:01;;;;;;;5.70;4.00;;;;;;;14.60;93.37;97718.88;5407976;26;20728;-79
2024/04/15 03:56:26;;;;;;;6.63;4.27;;;;;;;14.41;94.92;97729.50;5408020;26;20281;-79
2024/04/15 03:58:57;;;;;;;7.53;4.80;;;;;;;14.18;96.93;97741.34;5407388;26;20222;-79
2024/04/15 04:01:23;;;;;;;6.27;4.53;;;;;;;13.99;98.11;97749.28;5406053;26;20277;-78
2024/04/15 04:03:51;;;;;;;7.20;4.00;;;;;;;13.89;100.00;97753.72;5407427;26;20761;-78
2024/04/15 04:06:18;;;;;;;6.43;4.67;;;;;;;13.89;100.00;97759.88;5407493;26;20616;-79
2024/04/15 04:08:46;;;;;;;4.93;4.10;;;;;;;13.90;99.90;97742.13;5407835;26;20229;-78
2024/04/15 04:11:12;;;;;;;6.20;4.70;;;;;;;13.84;99.91;97740.00;5406953;26;20345;-78
2024/04/15 04:13:40;;;;;;;5.40;4.47;;;;;;;13.72;100.00;97738.44;5407553;26;20229;-78
2024/04/15 04:16:11;;;;;;;6.47;5.17;;;;;;;13.74;100.00;97739.97;5408113;26;20371;-79
2024/04/15 04:18:39;;;;;;;6.40;5.00;;;;;;;13.73;99.77;97754.22;5407865;26;20253;-79
2024/04/15 04:21:09;;;;;;;8.27;5.40;;;;;;;13.82;99.00;97773.84;5407141;26;20305;-78
2024/04/15 04:23:37;;;;;;;6.10;4.83;;;;;;;13.83;98.30;97771.06;5407705;26;20313;-78
2024/04/15 04:26:03;;;;;;;6.63;5.00;;;;;;;13.93;98.32;97750.66;5407551;26;20288;-79
2024/04/15 04:28:31;;;;;;;6.60;5.20;;;;;;;13.79;99.81;97764.31;5408779;26;20325;-79
2024/04/15 04:31:00;;;;;;;9.13;6.17;;;;;;;13.60;100.00;97774.88;5408275;26;20651;-79
2024/04/15 04:33:31;;;;;;;5.43;4.90;;;;;;;13.42;100.00;97770.31;5409036;26;20817;-79
2024/04/15 04:35:57;;;;;;;11.53;6.27;;;;;;;13.30;100.00;97784.63;5409369;26;20233;-79
2024/04/15 04:38:25;;;;;;;7.73;5.57;;;;;;;13.16;100.00;97796.44;5408157;26;20338;-78
2024/04/15 04:40:55;;;;;;;8.40;6.00;;;;;;;13.10;100.00;97796.09;5405672;26;20601;-78
2024/04/15 04:43:23;;;;;;;10.07;5.67;;;;;;;13.15;100.00;97799.22;5407583;26;20288;-78
2024/04/15 04:45:49;;;;;;;9.10;6.07;;;;;;;13.06;100.00;97778.75;5436036;26;20681;-78
2024/04/15 04:48:17;;;;;;;9.67;6.10;;;;;;;13.01;100.00;97779.13;5443278;26;20247;-78
2024/04/15 04:50:46;;;;;;;6.60;5.90;;;;;;;13.03;100.00;97769.22;5443219;26;20644;-78
2024/04/15 04:53:17;;;;;;;9.87;6.00;;;;;;;12.97;100.00;97780.34;5444812;26;20266;-79
2024/04/15 04:55:45;;;;;;;6.73;5.07;;;;;;;12.92;100.00;97756.03;5445071;26;20262;-79
2024/04/15 04:58:14;;;;;;;5.90;4.70;;;;;;;12.87;100.00;97767.97;5443964;26;20279;-79
2024/04/15 05:00:39;;;;;;;9.83;5.00;;;;;;;12.75;100.00;97783.13;5443294;26;20368;-79
2024/04/15 05:03:07;;;;;;;5.70;4.20;;;;;;;12.69;100.00;97785.41;5446726;26;20231;-78
2024/04/15 05:05:34;;;;;;;6.53;3.73;;;;;;;12.65;100.00;97789.31;5446903;26;20232;-78
2024/04/15 05:08:05;;;;;;;4.10;3.57;;;;;;;12.62;100.00;97810.75;5447976;26;20427;-79
2024/04/15 05:10:31;;;;;;;4.80;3.50;;;;;;;12.60;100.00;97807.41;5447288;26;20358;-78
2024/04/15 05:12:59;;;;;;;5.97;3.40;;;;;;;12.56;100.00;97808.59;5447108;26;20240;-79
2024/04/15 05:15:26;;;;;;;4.23;3.23;;;;;;;12.56;100.00;97805.97;5443505;26;20351;-77
2024/04/15 05:17:54;;;;;;;5.00;3.00;;;;;;;12.57;100.00;97795.25;5441397;26;20243;-76
2024/04/15 05:20:20;;;;;;;4.73;3.03;;;;;;;12.56;100.00;97790.06;5438539;26;20585;-76
2024/04/15 05:22:48;;;;;;;4.13;3.07;;;;;;;12.55;100.00;97796.34;5441721;26;20235;-76
2024/04/15 05:25:16;;;;;;;3.97;2.80;;;;;;;12.53;100.00;97803.56;5440317;26;20313;-77
2024/04/15 05:27:44;;;;;;;3.90;2.93;;;;;;;12.56;100.00;97805.97;5445706;26;20273;-77
2024/04/15 05:30:11;;;;;;;3.73;2.70;;;;;;;12.57;100.00;97802.34;5446023;26;20239;-78
2024/04/15 05:32:39;;;;;;;4.10;2.80;;;;;;;12.59;100.00;97808.38;5444443;26;20232;-78
2024/04/15 05:35:05;;;;;;;3.20;2.60;;;;;;;12.59;100.00;97808.38;5444703;26;20610;-80
2024/04/15 05:37:33;;;;;;;5.77;2.53;;;;;;;12.62;100.00;97821.38;5445337;26;20342;-78
2024/04/15 05:39:59;;;;;;;3.67;2.70;;;;;;;12.65;100.00;97821.94;5447135;26;20652;-79
2024/04/15 05:42:29;;;;;;;5.97;3.23;;;;;;;12.69;100.00;97827.84;5446352;26;20228;-79
2024/04/15 05:44:55;;;;;;;6.20;2.70;;;;;;;12.70;100.00;97816.25;5429552;26;20795;-78
2024/04/15 05:47:23;;;;;;;2.60;2.20;;;;;;;12.71;100.00;97817.97;5407845;26;20337;-78
2024/04/15 05:49:49;;;;;;;2.13;1.60;;;;;;;12.69;100.00;97811.94;5410070;26;20343;-79
2024/04/15 05:52:17;;;;;;;3.87;1.90;;;;;;;12.69;100.00;97811.94;5414137;26;20245;-80
2024/04/15 05:54:43;;;;;;;6.00;1.93;;;;;;;12.71;100.00;97810.84;5409981;26;20233;-78
2024/04/15 05:57:11;;;;;;;3.77;1.73;;;;;;;12.67;100.00;97819.19;5408533;26;20805;-78
2024/04/15 05:59:39;;;;;;;2.30;1.50;;;;;;;12.71;100.00;97813.50;5403542;26;20245;-78
2024/04/15 06:02:08;;;;;;;3.87;2.60;;;;;;;12.75;100.00;97822.88;5405422;26;20731;-78
2024/04/15 06:04:35;;;;;;;5.03;3.00;;;;;;;12.74;100.00;97823.88;5406510;26;20841;-78
2024/04/15 06:07:03;;;;;;;4.53;2.97;;;;;;;12.78;100.00;97824.44;5407008;26;20233;-78
2024/04/15 06:09:29;;;;;;;4.60;2.90;;;;;;;12.74;100.00;97815.06;5406781;26;20296;-78
2024/04/15 06:11:57;;;;;;;4.30;2.50;;;;;;;12.79;100.00;97802.25;5406937;26;20230;-79
2024/04/15 06:14:22;;;;;;;3.37;1.80;;;;;;;12.85;100.00;97780.53;5406674;26;20301;-78
2024/04/15 06:16:54;;;;;;;3.00;1.70;;;;;;;12.80;100.00;97777.41;5406039;26;20808;-78
2024/04/15 06:19:20;;;;;;;1.93;1.63;;;;;;;12.75;100.00;97787.56;5405828;26;20742;-79
2024/04/15 06:21:48;;;;;;;2.90;1.57;;;;;;;12.81;100.00;97792.34;5407772;26;20298;-79
2024/04/15 06:24:14;;;;;;;2.93;1.60;;;;;;;12.82;100.00;97802.00;5409075;26;20285;-80
2024/04/15 06:26:43;;;;;;;2.37;1.70;;;;;;;12.85;100.00;97807.06;5409793;26;20675;-83
2024/04/15 06:29:08;;;;;;;4.20;2.10;;;;;;;12.89;100.00;97805.84;5413027;26;20769;-82
2024/04/15 06:31:36;;;;;;;2.57;1.70;;;;;;;12.91;100.00;97802.06;5413714;26;20233;-83
2024/04/15 06:34:05;;;;;;;2.97;1.67;;;;;;;12.92;100.00;97800.25;5411522;26;20233;-83
2024/04/15 06:36:34;;;;;;;3.03;1.60;;;;;;;12.93;100.00;97816.06;5414212;26;20225;-83
2024/04/15 06:38:59;;;;;;;2.50;2.10;;;;;;;12.99;100.00;97793.50;5413753;26;20267;-83
2024/04/15 06:41:27;;;;;;;4.03;2.10;;;;;;;12.99;100.00;97794.34;5414234;26;20237;-83
2024/04/15 06:43:53;;;;;;;2.47;1.60;;;;;;;13.01;100.00;97797.72;5414563;26;20308;-83
2024/04/15 06:46:22;;;;;;;2.53;1.70;;;;;;;13.03;100.00;97794.94;5450193;26;20231;-83
2024/04/15 06:48:48;;;;;;;2.47;1.60;;;;;;;13.01;100.00;97804.84;5450431;26;20224;-84
2024/04/15 06:51:19;;;;;;;2.40;1.87;;;;;;;12.99;100.00;97804.13;5448762;26;20298;-84
2024/04/15 06:53:45;;;;;;;3.50;1.87;;;;;;;13.04;100.00;97801.91;5450408;26;20279;-84
2024/04/15 06:56:15;;;;;;;3.07;1.93;;;;;;;13.02;100.00;97796.72;5450957;26;20228;-86
2024/04/15 06:58:41;;;;;;;2.87;1.50;;;;;;;13.09;100.00;97789.13;5448883;26;20220;-84
2024/04/15 07:01:09;;;;;;;3.33;2.00;;;;;;;13.19;100.00;97787.34;5448907;25;20319;-82
2024/04/15 07:03:34;;;;;;;2.30;1.60;;;;;;;13.25;100.00;97789.47;5450359;26;20239;-83
2024/04/15 07:06:06;;;;;;;3.13;1.80;;;;;;;13.33;100.00;97789.69;5451228;26;21080;-84
2024/04/15 07:08:34;;;;;;;3.93;1.70;;;;;;;13.38;100.00;97776.88;5448945;26;20313;-83
2024/04/15 07:11:03;;;;;;;2.87;2.10;;;;;;;13.42;100.00;97787.06;5449783;26;20244;-84
2024/04/15 07:13:29;;;;;;;2.53;1.83;;;;;;;13.54;100.00;97780.72;5446592;25;20293;-82
2024/04/15 07:15:57;;;;;;;2.70;1.90;;;;;;;13.61;100.00;97792.47;5449702;26;20228;-84
2024/04/15 07:18:23;;;;;;;2.87;1.97;;;;;;;13.65;100.00;97796.56;5450385;26;20236;-84
2024/04/15 07:20:51;;;;;;;4.17;2.13;;;;;;;13.68;100.00;97787.50;5450582;25;20332;-83
2024/04/15 07:23:17;;;;;;;3.27;2.00;;;;;;;13.70;100.00;97788.19;5447111;25;20349;-84
2024/04/15 07:25:48;;;;;;;4.00;2.20;;;;;;;13.69;100.00;97794.47;5445231;26;20240;-83
2024/04/15 07:28:13;;;;;;;3.33;2.40;;;;;;;13.78;100.00;97798.97;5445516;26;20672;-80
2024/04/15 07:30:41;;;;;;;5.90;2.20;;;;;;;13.80;100.00;97789.06;5448125;26;20321;-79
2024/04/15 07:33:07;;;;;;;3.00;2.40;;;;;;;13.79;100.00;97795.34;5449032;26;20257;-80
2024/04/15 07:35:35;;;;;;;4.03;2.40;;;;;;;13.87;100.00;97774.28;5452807;26;20300;-80
2024/04/15 07:38:01;;;;;;;3.63;2.73;;;;;;;13.91;100.00;97767.69;5453679;26;20237;-80
2024/04/15 07:40:30;;;;;;;2.97;2.50;;;;;;;13.90;100.00;97768.69;5454946;26;20290;-80
2024/04/15 07:42:58;;;;;;;4.67;2.67;;;;;;;13.90;100.00;97782.81;5454984;26;20292;-80
2024/04/15 07:45:26;;;;;;;5.50;2.70;;;;;;;13.92;100.00;97759.59;5431312;26;20325;-81
2024/04/15 07:47:51;;;;;;;4.47;2.80;;;;;;;13.87;100.00;97763.66;5410719;26;20237;-80
2024/04/15 07:50:20;;;;;;;5.20;3.07;;;;;;;13.87;100.00;97758.34;5414463;26;20237;-81
2024/04/15 07:52:45;;;;;;;3.73;2.90;;;;;;;13.87;100.00;97766.31;5416676;26;20829;-82
2024/04/15 07:55:13;;;;;;;3.53;2.80;;;;;;;13.88;100.00;97754.72;5418385;26;20233;-82
2024/04/15 07:57:39;;;;;;;5.53;3.17;;;;;;;13.89;100.00;97754.56;5417738;26;20281;-82
2024/04/15 08:00:11;;;;;;;5.97;3.13;;;;;;;13.88;100.00;97765.34;5415481;26;20241;-81
2024/04/15 08:02:37;;;;;;;4.23;3.07;;;;;;;13.76;100.00;97769.88;5416965;26;21028;-82
2024/04/15 08:05:06;;;;;;;5.13;3.00;;;;;;;13.79;100.00;97774.94;5417578;26;20397;-82
2024/04/15 08:07:31;;;;;;;6.10;3.30;;;;;;;13.63;100.00;97789.69;5417139;26;20366;-82
2024/04/15 08:10:00;;;;;;;4.60;3.30;;;;;;;13.66;100.00;97784.97;5416291;26;20752;-82
2024/04/15 08:12:26;;;;;;;5.53;3.33;;;;;;;13.65;100.00;97777.97;5415046;26;20268;-81
2024/04/15 08:14:54;;;;;;;5.67;3.43;;;;;;;13.62;100.00;97772.09;5416941;26;20237;-79
2024/04/15 08:17:22;;;;;;;6.10;3.73;;;;;;;13.59;100.00;97767.88;5413725;26;20273;-80
2024/04/15 08:19:51;;;;;;;5.33;3.43;;;;;;;13.53;100.00;97754.28;5414099;26;20858;-80
2024/04/15 08:22:16;;;;;;;6.97;4.00;;;;;;;13.50;100.00;97762.53;5414410;26;20398;-81
2024/04/15 08:24:45;;;;;;;5.67;4.07;;;;;;;13.30;100.00;97752.78;5414110;26;20232;-81
2024/04/15 08:27:12;;;;;;;4.67;3.87;;;;;;;13.20;100.00;97770.47;5417887;26;20273;-83
2024/04/15 08:29:40;;;;;;;5.73;4.17;;;;;;;13.20;100.00;97755.38;5416172;26;20253;-81
2024/04/15 08:32:05;;;;;;;5.70;3.87;;;;;;;13.00;100.00;97752.72;5412871;26;20288;-79
2024/04/15 08:34:36;;;;;;;6.97;4.60;;;;;;;13.01;100.00;97760.56;5413137;26;20293;-79
2024/04/15 08:37:03;;;;;;;5.57;4.40;;;;;;;13.05;100.00;97759.34;5413331;26;20241;-79
2024/04/15 08:39:32;;;;;;;6.90;4.27;;;;;;;13.07;100.00;97759.22;5415039;26;20292;-80
2024/04/15 08:42:05;;;;;;;5.77;4.00;;;;;;;13.13;100.00;97763.97;5415663;26;20225;-79
2024/04/15 08:44:35;;;;;;;8.50;4.33;;;;;;;13.10;100.00;97748.34;5424960;26;20250;-79
2024/04/15 08:47:09;;;;;;;6.93;4.07;;;;;;;13.12;100.00;97747.25;5451497;26;20276;-79
2024/04/15 08:49:40;;;;;;;8.73;4.50;;;;;;;13.30;100.00;97743.00;5451227;26;20239;-80
2024/04/15 08:52:06;;;;;;;8.07;4.50;;;;;;;13.51;100.00;97732.34;5451813;26;20349;-79
2024/04/15 08:54:34;;;;;;;9.23;4.50;;;;;;;13.78;100.00;97729.91;5451520;26;20278;-80
2024/04/15 08:57:01;;;;;;;7.07;4.27;;;;;;;13.86;100.00;97720.28;5451867;26;20393;-80
2024/04/15 08:59:32;;;;;;;6.27;3.90;;;;;;;13.95;100.00;97700.91;5451025;26;20350;-80
2024/04/15 09:01:58;;;;;;;5.53;4.20;;;;;;;14.11;100.00;97705.69;5451394;26;20339;-79
2024/04/15 09:04:27;;;;;;;5.93;4.43;;;;;;;14.04;100.00;97707.19;5450067;26;20224;-79
2024/04/15 09:06:55;;;;;;;7.33;4.20;;;;;;;14.12;100.00;97713.50;5449762;26;20919;-79
2024/04/15 09:09:23;;;;;;;6.50;4.60;;;;;;;14.31;100.00;97708.22;5449589;26;20224;-79
2024/04/15 09:11:49;;;;;;;9.60;4.30;;;;;;;14.47;100.00;97697.03;5449991;26;20299;-80
2024/04/15 09:14:17;;;;;;;7.80;4.60;;;;;;;14.61;100.00;97688.66;5450039;26;20228;-80
2024/04/15 09:16:43;;;;;;;5.67;3.83;;;;;;;14.62;100.00;97685.84;5451054;26;20228;-80
2024/04/15 09:19:11;;;;;;;6.33;3.80;;;;;;;14.79;100.00;97697.59;5450505;26;20830;-79
2024/04/15 09:21:37;;;;;;;9.80;4.27;;;;;;;14.93;100.00;97681.16;5450170;26;20399;-80
2024/04/15 09:24:08;;;;;;;5.53;4.00;;;;;;;15.12;100.00;97686.44;5451676;26;20631;-80
2024/04/15 09:26:37;;;;;;;4.70;3.60;;;;;;;15.35;100.00;97679.81;5449732;26;21000;-80
2024/04/15 09:29:05;;;;;;;3.80;3.30;;;;;;;15.40;99.62;97669.56;5449872;26;20272;-80
2024/04/15 09:31:31;;;;;;;6.00;3.73;;;;;;;15.53;100.00;97664.72;5449661;26;20309;-80
2024/04/15 09:34:03;;;;;;;6.77;3.47;;;;;;;15.73;100.00;97671.63;5450881;26;20236;-80
2024/04/15 09:36:30;;;;;;;5.73;3.27;;;;;;;15.91;98.82;97659.16;5448923;26;20291;-80
2024/04/15 09:38:59;;;;;;;6.33;3.27;;;;;;;16.07;97.39;97651.34;5450223;26;20288;-81
2024/04/15 09:41:28;;;;;;;4.90;3.60;;;;;;;16.01;92.30;97630.63;5450128;26;20284;-80
2024/04/15 09:43:57;;;;;;;3.40;3.10;;;;;;;16.02;93.44;97638.47;5451102;26;20310;-80
2024/04/15 09:49:49;;;;;;;4.83;3.40;;;;;;;15.83;94.54;97648.44;5417588;26;20318;-82
2024/04/15 09:52:19;;;;;;;4.37;2.93;;;;;;;15.78;95.40;97653.38;5415254;26;20293;-83
2024/04/15 09:54:54;;;;;;;4.83;3.30;;;;;;;15.67;95.39;97654.41;5418058;26;20272;-81
2024/04/15 09:57:25;;;;;;;6.47;3.57;;;;;;;15.64;95.87;97653.88;5416185;26;20255;-81
2024/04/15 09:59:58;;;;;;;4.70;3.40;;;;;;;15.60;96.47;97652.50;5415001;26;20246;-81
2024/04/15 10:02:33;;;;;;;4.27;3.20;;;;;;;15.52;89.95;97612.44;5411340;26;20229;-78
2024/04/15 10:05:06;;;;;;;4.77;3.30;;;;;;;15.35;90.37;97615.91;5409671;26;20263;-77
2024/04/15 10:07:33;;;;;;;3.40;2.97;;;;;;;15.25;92.43;97615.06;5410772;26;20225;-78
2024/04/15 10:10:02;;;;;;;5.13;3.00;;;;;;;15.30;94.81;97623.44;5415176;26;20591;-79
2024/04/15 10:12:30;;;;;;;3.70;2.80;;;;;;;15.52;95.71;97623.09;5416695;26;20314;-79
2024/04/15 10:14:59;;;;;;;4.57;2.70;;;;;;;15.74;94.31;97593.38;5416537;26;20626;-79
2024/04/15 10:17:25;;;;;;;3.87;2.87;;;;;;;15.98;92.67;97571.28;5417663;26;20328;-80
2024/04/15 10:19:53;;;;;;;3.63;2.80;;;;;;;16.28;88.53;97554.06;5416670;26;20241;-79
2024/04/15 10:22:23;;;;;;;4.90;2.93;;;;;;;16.63;87.36;97543.34;5416366;26;20285;-79
2024/04/15 10:24:51;;;;;;;2.87;2.63;;;;;;;17.04;87.21;97546.06;5417279;26;20544;-79
2024/04/15 10:27:17;;;;;;;4.33;2.80;;;;;;;17.14;82.71;97533.41;5414361;26;20355;-78
2024/04/15 10:29:52;;;;;;;3.50;2.80;;;;;;;17.10;81.37;97525.88;5412746;26;20731;-79
2024/04/15 10:32:18;;;;;;;3.03;2.30;;;;;;;17.07;82.94;97535.06;5411983;26;20323;-80
2024/04/15 10:34:53;;;;;;;4.73;2.43;;;;;;;17.09;82.24;97525.06;5412029;26;20237;-81
2024/04/15 10:37:28;;;;;;;2.97;2.67;;;;;;;17.01;81.17;97522.34;5412832;26;20229;-81
2024/04/15 10:40:02;;;;;;;3.23;2.23;;;;;;;16.82;76.76;97493.22;5410025;26;20257;-81
2024/04/15 10:42:28;;;;;;;2.97;2.10;;;;;;;16.73;77.27;97506.69;5411669;26;20236;-81
2024/04/15 10:44:59;;;;;;;4.00;2.13;;;;;;;16.61;78.17;97508.81;5426804;26;20344;-80
2024/04/15 10:47:25;;;;;;;3.53;2.27;;;;;;;16.51;79.36;97534.75;5448380;26;20229;-80
2024/04/15 10:49:53;;;;;;;2.77;1.90;;;;;;;16.46;78.61;97513.03;5448478;26;20237;-80
2024/04/15 10:52:20;;;;;;;3.50;2.07;;;;;;;16.40;79.88;97518.19;5446751;26;20236;-80
2024/04/15 10:54:48;;;;;;;4.33;1.90;;;;;;;16.49;80.79;97517.22;5452350;26;20312;-80
2024/04/15 10:57:13;;;;;;;2.20;1.70;;;;;;;16.60;80.60;97511.63;5453146;26;20276;-80
2024/04/15 10:59:43;;;;;;;2.27;1.87;;;;;;;16.49;77.21;97488.72;5450805;26;20240;-81
2024/04/15 11:02:11;;;;;;;4.63;2.00;;;;;;;16.55;76.93;97482.75;5452565;26;20232;-81
2024/04/15 11:04:40;;;;;;;2.13;1.73;;;;;;;16.71;75.96;97477.50;5452990;26;20289;-81
2024/04/15 11:07:05;;;;;;;2.77;2.03;;;;;;;16.79;73.10;97448.19;5452681;26;20274;-81
2024/04/15 11:09:37;;;;;;;3.57;2.07;;;;;;;16.98;75.47;97468.44;5451466;26;20248;-81
2024/04/15 11:12:03;;;;;;;3.33;1.80;;;;;;;17.09;74.27;97444.13;5451284;26;20263;-81
2024/04/15 11:14:31;;;;;;;1.93;1.50;;;;;;;17.22;73.15;97434.66;5451184;26;20276;-81
2024/04/15 11:16:57;;;;;;;2.40;1.60;;;;;;;17.29;71.85;97419.63;5452299;26;20255;-81
2024/04/15 11:19:28;;;;;;;3.13;1.70;;;;;;;17.42;72.19;97412.00;5451230;26;20229;-81
2024/04/15 11:22:01;;;;;;;2.43;1.50;;;;;;;17.48;69.62;97384.63;5451357;26;20288;-81
2024/04/15 11:24:29;;;;;;;3.77;1.80;;;;;;;17.65;69.95;97377.44;5448761;26;20320;-81
2024/04/15 11:26:55;;;;;;;4.20;1.70;;;;;;;17.87;69.57;97366.06;5450838;26;20280;-81
2024/04/15 11:29:23;;;;;;;4.37;1.43;;;;;;;18.09;67.52;97349.28;5449367;26;20297;-81
2024/04/15 11:31:49;;;;;;;3.63;1.47;;;;;;;18.15;65.51;97338.75;5447452;26;20334;-81
2024/04/15 11:34:17;;;;;;;1.83;1.20;;;;;;;18.13;66.39;97340.78;5448348;26;20240;-81